This is the latest recevied weather packets stored in our database for station/object N5ZP. If no packets are shown the sender has not sent any weather packets the latest 1 day(s).
| Time | Temp. | Humidity | Pressure | Rain* | Wind** | Luminosity | Snow |
|---|---|---|---|---|---|---|---|
| 1778035448 | 18.33° C | 75% | 1005.5 hPa | 0 mm | - | 0 W/m² | - |
| 1778034841 | 18.33° C | 76% | 1005.4 hPa | 0 mm | - | 0 W/m² | - |
| 1778034537 | 18.33° C | 75% | 1005.3 hPa | 0 mm | - | 0 W/m² | - |
| 1778034235 | 18.33° C | 75% | 1005.3 hPa | 0 mm | - | 0 W/m² | - |
| 1778033933 | 18.33° C | 75% | 1005.5 hPa | 0 mm | - | 0 W/m² | - |
| 1778033326 | 18.89° C | 74% | 1005.4 hPa | 0 mm | - | 0 W/m² | - |
| 1778033024 | 18.89° C | 74% | 1005 hPa | 0 mm | - | 0 W/m² | - |
| 1778032721 | 18.89° C | 73% | 1005.1 hPa | 0 mm | - | 0 W/m² | - |
| 1778032419 | 18.89° C | 73% | 1005 hPa | 0 mm | - | 0 W/m² | - |
| 1778032115 | 18.89° C | 73% | 1004.8 hPa | 0 mm | - | 0 W/m² | - |
| 1778031812 | 18.89° C | 72% | 1004.5 hPa | 0 mm | - | 0 W/m² | - |
| 1778031509 | 18.89° C | 72% | 1004.5 hPa | 0 mm | - | 0 W/m² | - |
| 1778031206 | 18.89° C | 73% | 1004.1 hPa | 0 mm | - | 0 W/m² | - |
| 1778030600 | 19.44° C | 71% | 1004 hPa | 0 mm | - | 1 W/m² | - |
| 1778030297 | 19.44° C | 71% | 1004 hPa | 0 mm | - | 1 W/m² | - |
| 1778029993 | 20° C | 71% | 1003.6 hPa | 0 mm | - | 5 W/m² | - |
| 1778029691 | 20° C | 71% | 1003.6 hPa | 0 mm | - | 5 W/m² | - |
| 1778029389 | 20° C | 71% | 1003.6 hPa | 0 mm | - | 5 W/m² | - |
| 1778029086 | 20° C | 70% | 1003.5 hPa | 0 mm | - | 8 W/m² | - |
| 1778028478 | 21.11° C | 70% | 1002.9 hPa | 0 mm | - | 13 W/m² | - |
| 1778027872 | 21.11° C | 70% | 1003.1 hPa | 0 mm | - | 15 W/m² | - |
| 1778027569 | 21.11° C | 69% | 1003.1 hPa | 0 mm | - | 11 W/m² | - |
| 1778027265 | 21.67° C | 69% | 1003.1 hPa | 0 mm | - | 14 W/m² | - |
| 1778026961 | 21.67° C | 68% | 1002.6 hPa | 0 mm | - | 19 W/m² | - |
| 1778026355 | 21.67° C | 68% | 1002.9 hPa | 0 mm | - | 15 W/m² | - |
* Rain latest hour (hover to see other rain measurements)
** Current wind speed in m/s (hover to see current wind gust speed)